createdAt,value
2022-09-02T00:01:27.513Z,98515.53
2022-09-02T00:04:21.820Z,98522.03
2022-09-02T00:07:11.280Z,98520.00
2022-09-02T00:10:00.653Z,98514.97
2022-09-02T00:12:49.867Z,98511.97
2022-09-02T00:15:39.515Z,98513.22
2022-09-02T00:18:30.629Z,98507.56
2022-09-02T00:21:23.777Z,98509.53
2022-09-02T00:24:13.030Z,98507.03
2022-09-02T00:27:03.017Z,98510.69
2022-09-02T00:29:52.488Z,98502.16
2022-09-02T00:32:42.429Z,98499.81
2022-09-02T00:35:33.558Z,98505.44
2022-09-02T00:38:23.065Z,98505.09
2022-09-02T00:41:14.465Z,98503.75
2022-09-02T00:44:09.099Z,98505.03
2022-09-02T00:46:58.273Z,98502.00
2022-09-02T00:49:53.792Z,98503.97
2022-09-02T00:52:53.577Z,98499.28
2022-09-02T00:55:47.716Z,98498.47
2022-09-02T00:58:40.046Z,98498.78
2022-09-02T01:01:29.659Z,98500.75
2022-09-02T01:04:19.203Z,98489.56
2022-09-02T01:07:09.629Z,98496.03
2022-09-02T01:10:01.264Z,98503.63
2022-09-02T01:12:51.039Z,98496.78
2022-09-02T01:15:44.562Z,98492.63
2022-09-02T01:18:36.675Z,98496.44
2022-09-02T01:21:25.950Z,98495.06
2022-09-02T01:24:18.558Z,98492.69
2022-09-02T01:27:07.822Z,98492.03
2022-09-02T01:30:01.575Z,98491.34
2022-09-02T01:32:51.544Z,98487.16
2022-09-02T01:35:41.384Z,98483.97
2022-09-02T01:38:31.788Z,98485.97
2022-09-02T01:41:22.463Z,98480.09
2022-09-02T01:44:12.257Z,98475.94
2022-09-02T01:47:01.667Z,98480.72
2022-09-02T01:49:52.142Z,98476.53
2022-09-02T01:52:41.458Z,98476.84
2022-09-02T01:55:31.347Z,98476.13
2022-09-02T01:58:22.457Z,98479.09
2022-09-02T02:01:12.508Z,98474.78
2022-09-02T02:04:04.207Z,98474.94
2022-09-02T02:06:53.931Z,98474.38
2022-09-02T02:09:44.794Z,98469.41
2022-09-02T02:12:33.918Z,98461.72
2022-09-02T02:18:13.992Z,98472.97
2022-09-02T02:21:03.293Z,98469.44
2022-09-02T02:23:53.173Z,98472.56
2022-09-02T02:26:42.521Z,98464.59
2022-09-02T02:29:31.714Z,98470.19
2022-09-02T02:32:22.272Z,98467.84
2022-09-02T02:35:12.397Z,98470.50
2022-09-02T02:38:03.702Z,98476.09
2022-09-02T02:40:56.622Z,98472.94
2022-09-02T02:43:47.417Z,98465.41
2022-09-02T02:46:36.739Z,98463.72
2022-09-02T02:49:27.639Z,98471.00
2022-09-02T02:52:16.848Z,98472.97
2022-09-02T02:55:07.645Z,98467.09
2022-09-02T02:57:59.702Z,98466.56
2022-09-02T03:00:50.100Z,98463.50
2022-09-02T03:03:39.499Z,98461.84
2022-09-02T03:06:30.484Z,98459.47
2022-09-02T03:09:20.498Z,98464.41
2022-09-02T03:12:09.870Z,98461.06
2022-09-02T03:14:59.063Z,98457.19
2022-09-02T03:17:49.823Z,98456.31
2022-09-02T03:20:40.558Z,98461.94
2022-09-02T03:23:31.032Z,98458.59
2022-09-02T03:26:24.562Z,98462.50
2022-09-02T03:29:13.792Z,98461.84
2022-09-02T03:32:03.138Z,98460.00
2022-09-02T03:34:52.583Z,98452.19
2022-09-02T03:37:42.262Z,98449.81
2022-09-02T03:40:32.875Z,98453.31
2022-09-02T03:43:22.264Z,98447.47
2022-09-02T03:46:11.659Z,98450.13
2022-09-02T03:49:01.114Z,98444.13
2022-09-02T03:51:50.370Z,98441.47
2022-09-02T03:54:39.714Z,98442.63
2022-09-02T03:57:30.360Z,98442.75
2022-09-02T04:00:25.190Z,98450.03
2022-09-02T04:03:14.444Z,98446.97
2022-09-02T04:06:03.675Z,98439.16
2022-09-02T04:08:53.076Z,98444.75
2022-09-02T04:11:43.289Z,98454.81
2022-09-02T04:14:34.070Z,98458.75
2022-09-02T04:18:37.247Z,98448.44
2022-09-02T04:21:27.878Z,98450.38
2022-09-02T04:24:17.050Z,98450.66
2022-09-02T04:27:06.462Z,98445.66
2022-09-02T04:29:57.390Z,98455.41
2022-09-02T04:32:46.790Z,98450.25
2022-09-02T04:35:40.526Z,98459.34
2022-09-02T04:38:29.695Z,98444.41
2022-09-02T04:41:22.929Z,98452.38
2022-09-02T04:44:12.131Z,98449.84
2022-09-02T04:47:02.796Z,98449.84
2022-09-02T04:49:52.867Z,98460.47
2022-09-02T04:52:42.424Z,98451.81
2022-09-02T04:55:32.655Z,98463.41
2022-09-02T04:58:21.976Z,98457.25
2022-09-02T05:01:15.308Z,98466.34
2022-09-02T05:04:09.894Z,98466.34
2022-09-02T05:07:01.507Z,98461.03
2022-09-02T05:09:51.397Z,98460.03
2022-09-02T05:12:41.915Z,98470.50
2022-09-02T05:15:31.767Z,98468.44
2022-09-02T05:18:21.054Z,98464.09
2022-09-02T05:21:12.148Z,98471.78
2022-09-02T05:24:01.513Z,98462.94
2022-09-02T05:26:51.092Z,98471.31
2022-09-02T05:29:43.966Z,98472.53
2022-09-02T05:32:37.742Z,98469.06
2022-09-02T05:35:27.353Z,98474.91
2022-09-02T05:38:18.241Z,98476.00
2022-09-02T05:41:08.498Z,98476.56
2022-09-02T05:44:03.641Z,98476.28
2022-09-02T05:46:53.840Z,98473.72
2022-09-02T05:49:43.055Z,98467.00
2022-09-02T05:52:32.398Z,98468.59
2022-09-02T05:55:22.859Z,98479.50
2022-09-02T05:58:12.223Z,98472.75
2022-09-02T06:01:01.342Z,98472.47
2022-09-02T06:03:52.891Z,98477.03
2022-09-02T06:06:42.394Z,98464.03
2022-09-02T06:09:31.677Z,98470.50
2022-09-02T06:12:25.261Z,98469.44
2022-09-02T06:15:14.950Z,98474.09
2022-09-02T06:18:04.170Z,98480.72
2022-09-02T06:20:54.825Z,98479.03
2022-09-02T06:23:46.026Z,98481.59
2022-09-02T06:26:35.782Z,98477.72
2022-09-02T06:29:27.915Z,98476.34
2022-09-02T06:32:17.059Z,98481.06
2022-09-02T06:35:08.886Z,98479.53
2022-09-02T06:38:01.091Z,98469.06
2022-09-02T06:40:54.627Z,98462.44
2022-09-02T06:43:44.498Z,98459.19
2022-09-02T06:46:39.982Z,98463.41
2022-09-02T06:49:29.848Z,98454.66
2022-09-02T06:52:18.973Z,98450.69
2022-09-02T06:55:10.651Z,98451.00
2022-09-02T06:57:59.893Z,98453.38
2022-09-02T07:00:49.306Z,98449.34
2022-09-02T07:03:57.648Z,98456.19
2022-09-02T07:06:50.040Z,98455.72
2022-09-02T07:09:40.347Z,98448.38
2022-09-02T07:12:29.476Z,98451.19
2022-09-02T07:15:19.210Z,98446.16
2022-09-02T07:18:08.491Z,98443.94
2022-09-02T07:20:59.070Z,98438.88
2022-09-02T07:23:48.470Z,98441.00
2022-09-02T07:26:38.346Z,98441.41
2022-09-02T07:29:27.882Z,98436.59
2022-09-02T07:32:17.647Z,98433.66
2022-09-02T07:35:09.288Z,98438.22
2022-09-02T07:37:59.908Z,98431.75
2022-09-02T07:40:50.704Z,98427.22
2022-09-02T07:43:49.671Z,98431.34
2022-09-02T07:46:41.319Z,98428.66
2022-09-02T07:50:15.491Z,98422.19
2022-09-02T07:52:43.328Z,98423.25
2022-09-02T07:55:37.362Z,98412.81
2022-09-02T07:58:27.764Z,98419.78
2022-09-02T08:01:23.459Z,98410.06
2022-09-02T08:04:14.085Z,98407.78
2022-09-02T08:07:03.308Z,98415.56
2022-09-02T08:09:52.746Z,98412.28
2022-09-02T08:12:46.466Z,98414.91
2022-09-02T08:15:37.416Z,98408.81
2022-09-02T08:18:26.968Z,98408.91
2022-09-02T08:21:16.163Z,98414.84
2022-09-02T08:24:05.801Z,98416.13
2022-09-02T08:26:54.957Z,98408.28
2022-09-02T08:29:45.410Z,98404.16
2022-09-02T08:32:34.878Z,98405.16
2022-09-02T08:35:24.062Z,98398.84
2022-09-02T08:38:13.303Z,98393.59
2022-09-02T08:41:02.884Z,98389.53
2022-09-02T08:43:56.369Z,98389.69
2022-09-02T08:46:48.090Z,98389.09
2022-09-02T08:49:44.740Z,98380.19
2022-09-02T08:52:42.569Z,98384.56
2022-09-02T08:55:44.235Z,98378.94
2022-09-02T08:58:41.746Z,98369.56
2022-09-02T09:01:46.292Z,98367.16
2022-09-02T09:05:07.324Z,98369.38
2022-09-02T09:08:13.927Z,98372.81
2022-09-02T09:11:10.714Z,98373.19
2022-09-02T09:14:28.399Z,98365.19
2022-09-02T09:17:30.141Z,98359.72
2022-09-02T09:20:27.334Z,98360.50
2022-09-02T09:23:33.986Z,98354.00
2022-09-02T09:26:30.250Z,98353.94
2022-09-02T09:29:19.444Z,98349.06
2022-09-02T09:32:28.886Z,98345.56
2022-09-02T09:35:20.651Z,98349.06
2022-09-02T09:38:15.467Z,98342.00
2022-09-02T09:41:20.583Z,98345.16
2022-09-02T09:44:09.769Z,98338.16
2022-09-02T09:47:03.299Z,98334.03
2022-09-02T09:49:54.240Z,98331.06
2022-09-02T09:52:45.339Z,98328.00
2022-09-02T09:55:39.372Z,98332.53
2022-09-02T09:58:35.267Z,98312.41
2022-09-02T10:01:29.460Z,98314.25
2022-09-02T10:04:46.249Z,98317.31
2022-09-02T10:07:39.729Z,98315.63
2022-09-02T10:10:33.121Z,98314.59
2022-09-02T10:13:27.882Z,98311.94
2022-09-02T10:16:32.145Z,98301.94
2022-09-02T10:19:34.238Z,98297.00
2022-09-02T10:22:59.382Z,98301.34
2022-09-02T10:26:05.390Z,98303.38
2022-09-02T10:29:33.518Z,98299.78
2022-09-02T10:32:41.036Z,98299.78
2022-09-02T10:35:42.463Z,98290.81
2022-09-02T10:38:43.618Z,98289.69
2022-09-02T10:44:55.588Z,98282.41
2022-09-02T10:48:02.139Z,98280.81
2022-09-02T10:50:59.714Z,98280.72
2022-09-02T10:54:09.688Z,98282.75
2022-09-02T10:57:09.149Z,98282.13
2022-09-02T11:00:06.847Z,98281.88
2022-09-02T11:03:08.216Z,98267.41
2022-09-02T11:06:06.064Z,98270.22
2022-09-02T11:09:00.318Z,98260.47
2022-09-02T11:12:00.515Z,98253.97
2022-09-02T11:15:06.007Z,98258.63
2022-09-02T11:21:14.593Z,98247.72
2022-09-02T11:24:11.029Z,98249.91
2022-09-02T11:27:25.974Z,98237.84
2022-09-02T11:30:26.635Z,98242.22
2022-09-02T11:33:24.419Z,98241.50
2022-09-02T11:36:14.417Z,98235.97
2022-09-02T11:39:11.706Z,98237.13
2022-09-02T11:42:27.564Z,98227.84
2022-09-02T11:45:59.420Z,98224.75
2022-09-02T11:49:31.923Z,98224.38
2022-09-02T11:52:40.241Z,98217.69
2022-09-02T11:55:36.949Z,98213.50
2022-09-02T11:58:38.934Z,98207.09
2022-09-02T12:01:34.793Z,98213.53
2022-09-02T12:07:48.870Z,98199.75
2022-09-02T12:11:04.325Z,98204.69
2022-09-02T12:13:55.842Z,98197.78
2022-09-02T12:17:03.631Z,98195.78
2022-09-02T12:19:52.736Z,98190.38
2022-09-02T12:22:42.579Z,98188.50
2022-09-02T12:25:49.496Z,98179.47
2022-09-02T12:28:40.073Z,98170.69
2022-09-02T12:31:43.221Z,98176.22
2022-09-02T12:34:57.342Z,98173.09
2022-09-02T12:37:57.596Z,98163.16
2022-09-02T12:41:01.255Z,98164.41
2022-09-02T12:44:25.336Z,98175.44
2022-09-02T12:47:32.924Z,98166.31
2022-09-02T12:50:32.289Z,98168.31
2022-09-02T12:53:38.696Z,98159.78
2022-09-02T12:56:30.746Z,98146.84
2022-09-02T12:59:31.405Z,98150.44
2022-09-02T13:02:50.910Z,98143.13
2022-09-02T13:05:56.985Z,98149.97
2022-09-02T13:13:03.803Z,98142.13
2022-09-02T13:16:18.701Z,98142.06
2022-09-02T13:19:46.166Z,98142.25
2022-09-02T13:23:05.642Z,98128.28
2022-09-02T13:26:48.447Z,98135.34
2022-09-02T13:30:08.495Z,98131.69
2022-09-02T13:33:03.489Z,98127.31
2022-09-02T13:35:59.061Z,98129.91
2022-09-02T13:38:49.658Z,98118.00
2022-09-02T13:41:38.959Z,98114.13
2022-09-02T13:44:30.085Z,98109.66
2022-09-02T13:47:21.040Z,98114.44
2022-09-02T13:50:13.105Z,98113.56
2022-09-02T13:56:18.544Z,98115.00
2022-09-02T13:59:07.720Z,98114.31
2022-09-02T14:01:57.093Z,98114.41
2022-09-02T14:04:47.117Z,98106.78
2022-09-02T14:07:42.299Z,98088.81
2022-09-02T14:10:34.270Z,98092.66
2022-09-02T14:13:25.275Z,98094.19
2022-09-02T14:16:34.274Z,98085.25
2022-09-02T14:19:27.133Z,98076.66
2022-09-02T14:22:29.347Z,98082.19
2022-09-02T14:25:22.243Z,98076.91
2022-09-02T14:28:25.152Z,98068.22
2022-09-02T14:31:30.536Z,98078.78
2022-09-02T14:34:37.550Z,98072.84
2022-09-02T14:37:29.106Z,98080.13
2022-09-02T14:40:19.696Z,98076.16
2022-09-02T14:43:15.288Z,98072.41
2022-09-02T14:46:25.450Z,98071.13
2022-09-02T14:49:25.556Z,98065.22
2022-09-02T14:52:21.228Z,98062.72
2022-09-02T14:55:52.514Z,98058.44
2022-09-02T14:58:41.849Z,98063.91
2022-09-02T15:01:32.479Z,98068.22
2022-09-02T15:04:22.055Z,98067.63
2022-09-02T15:07:11.209Z,98063.75
2022-09-02T15:10:00.778Z,98054.84
2022-09-02T15:12:53.446Z,98070.91
2022-09-02T15:15:42.927Z,98053.09
2022-09-02T15:18:33.482Z,98060.91
2022-09-02T15:21:22.742Z,98048.09
2022-09-02T15:24:11.934Z,98045.31
2022-09-02T15:27:01.386Z,98046.03
2022-09-02T15:29:50.594Z,98046.22
2022-09-02T15:32:40.064Z,98039.91
2022-09-02T15:35:32.434Z,98036.69
2022-09-02T15:38:21.921Z,98036.41
2022-09-02T15:41:13.792Z,98038.34
2022-09-02T15:44:03.071Z,98031.56
2022-09-02T15:46:52.551Z,98022.06
2022-09-02T15:49:41.649Z,98029.81
2022-09-02T15:52:32.178Z,98020.28
2022-09-02T15:55:25.011Z,98017.91
2022-09-02T15:58:18.507Z,98031.94
2022-09-02T16:01:09.178Z,98022.22
2022-09-02T16:04:00.446Z,98026.88
2022-09-02T16:06:52.281Z,98018.00
2022-09-02T16:09:42.789Z,98013.09
2022-09-02T16:12:32.962Z,98014.75
2022-09-02T16:15:22.077Z,98016.13
2022-09-02T16:18:12.149Z,98021.28
2022-09-02T16:21:02.204Z,98013.06
2022-09-02T16:23:51.463Z,98010.84
2022-09-02T16:26:43.350Z,98006.94
2022-09-02T16:29:33.023Z,98008.00
2022-09-02T16:32:27.342Z,98005.00
2022-09-02T16:35:17.249Z,98006.56
2022-09-02T16:38:06.299Z,98009.41
2022-09-02T16:40:57.699Z,98002.06
2022-09-02T16:43:48.217Z,98005.81
2022-09-02T16:46:40.746Z,98007.88
2022-09-02T16:49:29.889Z,98006.13
2022-09-02T16:52:21.400Z,98017.16
2022-09-02T16:55:10.827Z,98011.97
2022-09-02T16:58:01.697Z,98017.16
2022-09-02T17:00:52.234Z,98016.25
2022-09-02T17:03:42.785Z,98000.34
2022-09-02T17:06:33.060Z,98003.31
2022-09-02T17:09:22.283Z,98014.25
2022-09-02T17:12:11.426Z,98007.66
2022-09-02T17:15:00.610Z,98009.75
2022-09-02T17:17:54.131Z,98011.50
2022-09-02T17:20:43.292Z,98011.78
2022-09-02T17:23:32.640Z,98016.81
2022-09-02T17:26:25.885Z,98014.78
2022-09-02T17:29:46.944Z,98020.31
2022-09-02T17:32:27.707Z,98019.19
2022-09-02T17:35:18.909Z,98013.00
2022-09-02T17:38:08.113Z,98022.88
2022-09-02T17:41:14.865Z,98019.53
2022-09-02T17:44:04.780Z,98019.38
2022-09-02T17:46:55.742Z,98026.03
2022-09-02T17:49:45.252Z,98025.88
2022-09-02T17:52:35.720Z,98024.81
2022-09-02T17:55:24.985Z,98031.44
2022-09-02T17:58:22.453Z,98037.56
2022-09-02T18:01:17.067Z,98029.19
2022-09-02T18:04:27.442Z,98033.81
2022-09-02T18:07:33.661Z,98048.84
2022-09-02T18:10:24.783Z,98051.84
2022-09-02T18:13:19.859Z,98053.56
2022-09-02T18:16:25.773Z,98051.34
2022-09-02T18:19:36.937Z,98057.78
2022-09-02T18:23:01.628Z,98060.06
2022-09-02T18:26:07.144Z,98062.28
2022-09-02T18:29:12.122Z,98061.00
2022-09-02T18:32:14.470Z,98072.75
2022-09-02T18:35:26.930Z,98068.50
2022-09-02T18:38:28.527Z,98063.66
2022-09-02T18:41:42.228Z,98069.16
2022-09-02T18:44:42.899Z,98061.41
2022-09-02T18:47:41.715Z,98070.59
2022-09-02T18:50:49.619Z,98069.44
2022-09-02T18:53:46.721Z,98066.38
2022-09-02T18:56:38.830Z,98071.19
2022-09-02T18:59:35.336Z,98071.19
2022-09-02T19:02:36.661Z,98077.91
2022-09-02T19:05:28.462Z,98082.69
2022-09-02T19:08:34.369Z,98085.84
2022-09-02T19:11:25.747Z,98085.47
2022-09-02T19:14:27.308Z,98085.09
2022-09-02T19:17:17.240Z,98090.69
2022-09-02T19:20:14.660Z,98085.97
2022-09-02T19:23:08.319Z,98082.91
2022-09-02T19:25:59.282Z,98069.00
2022-09-02T19:28:49.730Z,98074.41
2022-09-02T19:31:43.480Z,98074.59
2022-09-02T19:34:38.416Z,98072.34
2022-09-02T19:37:29.251Z,98074.44
2022-09-02T19:40:24.216Z,98080.22
2022-09-02T19:43:16.006Z,98092.41
2022-09-02T19:46:06.443Z,98103.59
2022-09-02T19:48:57.008Z,98108.53
2022-09-02T19:51:47.262Z,98102.13
2022-09-02T19:54:36.587Z,98099.59
2022-09-02T19:57:26.469Z,98105.38
2022-09-02T20:00:17.226Z,98102.22
2022-09-02T20:03:06.494Z,98106.13
2022-09-02T20:05:57.249Z,98108.16
2022-09-02T20:08:46.753Z,98108.53
2022-09-02T20:11:37.215Z,98110.78
2022-09-02T20:14:30.381Z,98111.31
2022-09-02T20:17:23.180Z,98115.41
2022-09-02T20:20:20.001Z,98106.06
2022-09-02T20:23:15.061Z,98103.53
2022-09-02T20:26:29.323Z,98105.06
2022-09-02T20:30:00.843Z,98112.63
2022-09-02T20:33:00.430Z,98112.81
2022-09-02T20:36:09.690Z,98117.28
2022-09-02T20:39:28.711Z,98119.91
2022-09-02T20:42:50.361Z,98126.88
2022-09-02T20:45:45.796Z,98122.28
2022-09-02T20:49:00.187Z,98120.78
2022-09-02T20:52:00.787Z,98125.44
2022-09-02T20:55:03.164Z,98129.06
2022-09-02T20:58:19.503Z,98123.84
2022-09-02T21:01:13.177Z,98120.91
2022-09-02T21:04:28.239Z,98112.38
2022-09-02T21:07:25.396Z,98112.44
2022-09-02T21:10:23.262Z,98116.72
2022-09-02T21:13:22.624Z,98116.66
2022-09-02T21:16:19.933Z,98118.41
2022-09-02T21:19:18.475Z,98117.50
2022-09-02T21:22:19.126Z,98112.28
2022-09-02T21:25:16.551Z,98103.31
2022-09-02T21:28:17.462Z,98098.75
2022-09-02T21:31:19.027Z,98105.03
2022-09-02T21:34:17.672Z,98103.28
2022-09-02T21:37:10.029Z,98111.88
2022-09-02T21:40:06.869Z,98100.63
2022-09-02T21:43:22.411Z,98117.41
2022-09-02T21:46:25.605Z,98121.66
2022-09-02T21:49:38.356Z,98124.41
2022-09-02T21:52:44.633Z,98127.81
2022-09-02T21:56:02.577Z,98119.53
2022-09-02T21:59:52.182Z,98127.59
2022-09-02T22:02:55.821Z,98131.00
2022-09-02T22:05:55.814Z,98126.56
2022-09-02T22:08:58.473Z,98124.63
2022-09-02T22:11:59.474Z,98132.53
2022-09-02T22:15:04.092Z,98127.91
2022-09-02T22:17:59.712Z,98124.31
2022-09-02T22:20:59.391Z,98123.00
2022-09-02T22:23:49.196Z,98114.03
2022-09-02T22:26:46.807Z,98117.44
2022-09-02T22:29:46.654Z,98117.13
2022-09-02T22:32:44.362Z,98121.19
2022-09-02T22:35:42.928Z,98114.50
2022-09-02T22:38:41.953Z,98117.94
2022-09-02T22:41:56.089Z,98117.63
2022-09-02T22:45:11.243Z,98116.16
2022-09-02T22:48:28.326Z,98109.66
2022-09-02T22:51:44.627Z,98113.69
2022-09-02T22:54:33.878Z,98107.06
2022-09-02T22:57:39.937Z,98106.38
2022-09-02T23:00:35.857Z,98108.59
2022-09-02T23:03:38.824Z,98114.28
2022-09-02T23:06:30.473Z,98102.31
2022-09-02T23:09:19.627Z,98104.31
2022-09-02T23:12:28.668Z,98107.16
2022-09-02T23:15:32.922Z,98109.16
2022-09-02T23:18:37.799Z,98105.84
2022-09-02T23:21:40.069Z,98107.84
2022-09-02T23:24:45.287Z,98112.66
2022-09-02T23:27:45.020Z,98105.69
2022-09-02T23:30:36.573Z,98112.22
2022-09-02T23:33:49.171Z,98117.91
2022-09-02T23:36:51.320Z,98113.75
2022-09-02T23:40:00.862Z,98111.59
2022-09-02T23:42:51.354Z,98106.63
2022-09-02T23:45:40.745Z,98100.78
2022-09-02T23:48:47.147Z,98111.00
2022-09-02T23:51:51.164Z,98101.66
2022-09-02T23:55:09.085Z,98099.31
2022-09-02T23:58:32.302Z,98090.03
